Terminal Aerodrome Forecast
Issued by NWS

Home | Current Version | Previous Version | Text Only | Print | Product List | Glossary On
Versions: 1 2 3 4 5 6 7 8 9 10 11 12 13
000
FTUS45 KABQ 050100 AAA
TAFSAF
TAF AMD
KSAF 050126Z 0501/0524 13016G24KT P6SM BKN070
     FM050300 12012KT P6SM BKN025
     FM051000 01007KT P6SM SCT022
     FM051200 02015KT P6SM FEW020
     FM051900 28008KT P6SM SKC=

USA.gov is the U.S. government's official web portal to all federal, state and local government web resources and services.